createdAt,value
2023-02-27T00:01:57.315Z,7.97
2023-02-27T00:04:24.417Z,8.60
2023-02-27T00:06:51.586Z,7.38
2023-02-27T00:09:18.679Z,9.15
2023-02-27T00:11:45.759Z,8.93
2023-02-27T00:14:12.949Z,7.95
2023-02-27T00:16:40.063Z,7.63
2023-02-27T00:19:07.196Z,7.88
2023-02-27T00:21:36.835Z,10.07
2023-02-27T00:24:04.291Z,10.27
2023-02-27T00:26:31.611Z,7.90
2023-02-27T00:28:58.743Z,9.65
2023-02-27T00:31:26.114Z,8.85
2023-02-27T00:33:53.422Z,10.07
2023-02-27T00:36:20.596Z,10.40
2023-02-27T00:38:47.736Z,8.13
2023-02-27T00:41:15.068Z,10.00
2023-02-27T00:43:42.206Z,10.40
2023-02-27T00:46:10.258Z,9.35
2023-02-27T00:48:37.472Z,9.48
2023-02-27T00:51:04.692Z,10.75
2023-02-27T00:53:31.798Z,10.18
2023-02-27T00:55:58.940Z,8.27
2023-02-27T00:58:26.108Z,10.57
2023-02-27T01:00:53.284Z,8.95
2023-02-27T01:03:20.472Z,10.45
2023-02-27T01:05:47.739Z,9.23
2023-02-27T01:08:14.833Z,10.55
2023-02-27T01:10:41.978Z,11.07
2023-02-27T01:13:11.161Z,10.35
2023-02-27T01:15:38.546Z,11.32
2023-02-27T01:18:05.698Z,10.20
2023-02-27T01:20:32.857Z,12.15
2023-02-27T01:23:00.001Z,10.32
2023-02-27T01:25:27.103Z,10.82
2023-02-27T01:27:54.239Z,10.82
2023-02-27T01:30:21.520Z,11.63
2023-02-27T01:32:48.625Z,11.32
2023-02-27T01:35:15.819Z,10.05
2023-02-27T01:37:42.966Z,10.98
2023-02-27T01:40:10.370Z,10.88
2023-02-27T01:42:38.063Z,12.25
2023-02-27T01:45:11.241Z,9.98
2023-02-27T01:47:44.365Z,12.23
2023-02-27T01:50:12.078Z,12.18
2023-02-27T01:52:40.396Z,13.60
2023-02-27T01:55:08.710Z,14.05
2023-02-27T01:57:36.801Z,11.43
2023-02-27T02:00:05.882Z,13.60
2023-02-27T02:02:38.211Z,13.93
2023-02-27T02:05:07.032Z,12.65
2023-02-27T02:07:35.564Z,11.88
2023-02-27T02:10:03.414Z,10.93
2023-02-27T02:12:34.106Z,13.00
2023-02-27T02:15:01.241Z,11.88
2023-02-27T02:17:51.508Z,13.95
2023-02-27T02:20:27.650Z,9.95
2023-02-27T02:22:54.790Z,10.30
2023-02-27T02:25:40.636Z,12.45
2023-02-27T02:28:25.463Z,13.00
2023-02-27T02:30:52.688Z,12.75
2023-02-27T02:33:22.963Z,13.10
2023-02-27T02:35:53.228Z,10.93
2023-02-27T02:38:20.321Z,10.45
2023-02-27T02:40:54.897Z,11.80
2023-02-27T02:43:27.531Z,13.02
2023-02-27T02:45:54.728Z,13.25
2023-02-27T02:48:40.252Z,15.18
2023-02-27T02:51:07.463Z,13.38
2023-02-27T02:53:49.548Z,12.63
2023-02-27T02:56:16.683Z,12.70
2023-02-27T02:58:49.600Z,12.82
2023-02-27T03:01:18.333Z,11.82
2023-02-27T03:03:49.362Z,12.63
2023-02-27T03:06:31.549Z,12.65
2023-02-27T03:09:11.977Z,14.10
2023-02-27T03:11:41.849Z,13.15
2023-02-27T03:14:11.876Z,11.30
2023-02-27T03:16:41.491Z,14.02
2023-02-27T03:19:12.065Z,11.88
2023-02-27T03:21:41.965Z,15.48
2023-02-27T03:24:11.284Z,12.68
2023-02-27T03:26:40.927Z,15.40
2023-02-27T03:29:09.804Z,12.95
2023-02-27T03:31:49.202Z,13.45
2023-02-27T03:34:30.778Z,11.38
2023-02-27T03:39:32.734Z,13.05
2023-02-27T03:42:32.533Z,17.00
2023-02-27T03:45:08.369Z,13.32
2023-02-27T03:47:35.966Z,12.80
2023-02-27T03:50:03.142Z,12.48
2023-02-27T03:52:30.928Z,14.98
2023-02-27T03:55:00.304Z,14.20
2023-02-27T03:57:27.687Z,15.30
2023-02-27T03:59:55.124Z,12.48
2023-02-27T04:02:23.090Z,11.27
2023-02-27T04:04:50.217Z,13.40
2023-02-27T04:07:24.192Z,13.75
2023-02-27T04:09:51.328Z,14.35
2023-02-27T04:12:38.439Z,12.70
2023-02-27T04:15:14.552Z,12.05
2023-02-27T04:18:01.967Z,13.15
2023-02-27T04:20:42.194Z,11.73
2023-02-27T04:23:21.679Z,15.18
2023-02-27T04:25:52.118Z,12.80
2023-02-27T04:28:19.253Z,12.80
2023-02-27T04:30:58.871Z,15.45
2023-02-27T04:33:30.440Z,15.00
2023-02-27T04:36:00.625Z,13.18
2023-02-27T04:38:52.095Z,14.63
2023-02-27T04:41:24.447Z,14.77
2023-02-27T04:43:52.954Z,13.15
2023-02-27T04:46:22.254Z,12.77
2023-02-27T04:48:53.377Z,11.68
2023-02-27T04:51:26.251Z,12.40
2023-02-27T04:53:57.889Z,13.93
2023-02-27T04:58:59.330Z,12.80
2023-02-27T05:01:37.998Z,15.45
2023-02-27T05:04:05.951Z,12.40
2023-02-27T05:06:35.738Z,15.57
2023-02-27T05:09:23.146Z,15.38
2023-02-27T05:11:54.334Z,14.27
2023-02-27T05:14:41.773Z,14.52
2023-02-27T05:17:18.387Z,13.75
2023-02-27T05:19:46.860Z,16.50
2023-02-27T05:22:36.894Z,15.00
2023-02-27T05:25:09.948Z,13.80
2023-02-27T05:27:42.850Z,14.60
2023-02-27T05:30:13.652Z,15.02
2023-02-27T05:32:43.595Z,12.80
2023-02-27T05:35:29.635Z,12.65
2023-02-27T05:37:59.920Z,13.88
2023-02-27T05:40:30.958Z,17.30
2023-02-27T05:43:00.842Z,14.40
2023-02-27T05:45:29.877Z,16.60
2023-02-27T05:48:00.097Z,15.63
2023-02-27T05:50:28.869Z,15.10
2023-02-27T05:52:57.658Z,13.93
2023-02-27T05:55:34.624Z,16.88
2023-02-27T05:58:16.920Z,15.63
2023-02-27T06:00:46.756Z,14.50
2023-02-27T06:03:14.680Z,15.85
2023-02-27T06:05:42.986Z,13.05
2023-02-27T06:08:10.399Z,14.63
2023-02-27T06:10:37.920Z,14.82
2023-02-27T06:13:05.091Z,22.95
2023-02-27T06:15:32.277Z,15.75
2023-02-27T06:17:59.459Z,16.33
2023-02-27T06:20:26.551Z,14.38
2023-02-27T06:22:53.824Z,14.40
2023-02-27T06:25:22.079Z,15.02
2023-02-27T06:27:49.238Z,16.52
2023-02-27T06:30:16.535Z,16.05
2023-02-27T06:32:43.684Z,15.57
2023-02-27T06:35:10.797Z,16.75
2023-02-27T06:37:37.974Z,15.40
2023-02-27T06:40:05.911Z,14.70
2023-02-27T06:42:33.397Z,16.60
2023-02-27T06:45:00.566Z,17.45
2023-02-27T06:47:27.661Z,16.08
2023-02-27T06:49:54.782Z,14.43
2023-02-27T06:52:21.937Z,15.27
2023-02-27T06:54:49.045Z,17.02
2023-02-27T06:57:16.207Z,13.93
2023-02-27T06:59:45.144Z,15.85
2023-02-27T07:02:13.371Z,17.73
2023-02-27T07:04:40.865Z,13.73
2023-02-27T07:07:36.212Z,13.73
2023-02-27T07:09:55.151Z,13.98
2023-02-27T07:12:22.395Z,14.48
2023-02-27T07:14:49.472Z,15.13
2023-02-27T07:17:16.612Z,14.32
2023-02-27T07:19:43.753Z,13.70
2023-02-27T07:22:10.840Z,14.77
2023-02-27T07:24:38.140Z,14.88
2023-02-27T07:27:05.354Z,17.30
2023-02-27T07:29:32.560Z,17.52
2023-02-27T07:32:01.437Z,16.00
2023-02-27T07:34:28.658Z,15.93
2023-02-27T07:36:55.764Z,13.13
2023-02-27T07:39:23.052Z,16.65
2023-02-27T07:41:50.216Z,17.00
2023-02-27T07:44:17.531Z,12.30
2023-02-27T07:46:45.032Z,14.70
2023-02-27T07:49:12.220Z,14.40
2023-02-27T07:51:39.566Z,19.10
2023-02-27T07:54:06.691Z,16.60
2023-02-27T07:56:34.336Z,16.92
2023-02-27T07:59:01.507Z,14.00
2023-02-27T08:01:28.642Z,14.05
2023-02-27T08:03:56.578Z,17.23
2023-02-27T08:06:24.196Z,16.42
2023-02-27T08:08:51.777Z,15.10
2023-02-27T08:11:18.986Z,14.88
2023-02-27T08:14:02.791Z,14.05
2023-02-27T08:16:31.147Z,15.38
2023-02-27T08:18:58.625Z,16.13
2023-02-27T08:21:26.103Z,15.30
2023-02-27T08:23:53.422Z,14.90
2023-02-27T08:26:21.406Z,12.93
2023-02-27T08:28:48.591Z,12.80
2023-02-27T08:31:15.820Z,16.65
2023-02-27T08:33:42.957Z,12.95
2023-02-27T08:36:10.234Z,12.00
2023-02-27T08:38:37.619Z,12.48
2023-02-27T08:41:04.788Z,13.73
2023-02-27T08:43:32.123Z,13.05
2023-02-27T08:45:59.376Z,13.55
2023-02-27T08:48:26.523Z,14.43
2023-02-27T08:50:55.647Z,13.57
2023-02-27T08:53:23.923Z,12.05
2023-02-27T08:55:51.684Z,12.25
2023-02-27T08:58:19.077Z,11.10
2023-02-27T09:00:46.677Z,13.25
2023-02-27T09:03:13.963Z,12.25
2023-02-27T09:05:41.958Z,10.52
2023-02-27T09:08:09.258Z,11.43
2023-02-27T09:10:37.582Z,9.15
2023-02-27T09:13:05.128Z,9.60
2023-02-27T09:15:34.427Z,10.38
2023-02-27T09:18:03.216Z,14.48
2023-02-27T09:20:36.941Z,14.55
2023-02-27T09:23:04.581Z,10.70
2023-02-27T09:25:32.007Z,9.80
2023-02-27T09:27:59.475Z,9.65
2023-02-27T09:30:26.799Z,8.88
2023-02-27T09:32:54.143Z,8.95
2023-02-27T09:35:21.394Z,10.13
2023-02-27T09:37:49.617Z,11.20
2023-02-27T09:40:25.808Z,9.07
2023-02-27T09:42:54.555Z,9.82
2023-02-27T09:45:23.632Z,11.20
2023-02-27T09:47:54.326Z,9.40
2023-02-27T09:50:40.075Z,9.52
2023-02-27T09:53:12.891Z,8.32
2023-02-27T09:55:40.800Z,9.63
2023-02-27T09:58:14.999Z,9.00
2023-02-27T10:00:48.756Z,8.68
2023-02-27T10:03:15.943Z,8.70
2023-02-27T10:05:50.414Z,7.75
2023-02-27T10:08:17.556Z,8.15
2023-02-27T10:10:50.105Z,8.88
2023-02-27T10:13:20.277Z,7.72
2023-02-27T10:15:52.712Z,7.53
2023-02-27T10:18:28.986Z,6.75
2023-02-27T10:20:59.477Z,7.82
2023-02-27T10:23:38.590Z,6.97
2023-02-27T10:26:05.714Z,5.70
2023-02-27T10:28:33.703Z,6.22
2023-02-27T10:31:02.421Z,7.00
2023-02-27T10:33:35.828Z,8.00
2023-02-27T10:36:03.753Z,8.50
2023-02-27T10:38:34.096Z,6.25
2023-02-27T10:41:01.918Z,8.07
2023-02-27T10:43:29.649Z,7.82
2023-02-27T10:45:56.990Z,7.63
2023-02-27T10:48:24.154Z,7.20
2023-02-27T10:50:52.295Z,6.80
2023-02-27T10:53:19.449Z,10.05
2023-02-27T10:55:49.399Z,8.38
2023-02-27T10:58:20.615Z,7.13
2023-02-27T11:00:55.350Z,6.95
2023-02-27T11:03:29.663Z,8.32
2023-02-27T11:05:58.849Z,7.85
2023-02-27T11:08:27.943Z,7.22
2023-02-27T11:10:56.889Z,8.07
2023-02-27T11:13:25.894Z,6.47
2023-02-27T11:16:11.233Z,7.30
2023-02-27T11:18:39.511Z,7.97
2023-02-27T11:21:09.410Z,8.50
2023-02-27T11:23:36.936Z,7.55
2023-02-27T11:26:18.093Z,7.75
2023-02-27T11:28:45.305Z,5.68
2023-02-27T11:31:17.367Z,7.97
2023-02-27T11:33:52.082Z,7.03
2023-02-27T11:36:19.400Z,10.15
2023-02-27T11:38:56.492Z,6.53
2023-02-27T11:41:36.152Z,9.00
2023-02-27T11:44:05.579Z,7.28
2023-02-27T11:46:47.378Z,5.72
2023-02-27T11:49:18.524Z,7.82
2023-02-27T11:51:45.618Z,7.18
2023-02-27T11:54:15.872Z,8.10
2023-02-27T11:56:53.097Z,5.90
2023-02-27T11:59:26.006Z,8.73
2023-02-27T12:02:01.160Z,5.50
2023-02-27T12:04:28.235Z,7.75
2023-02-27T12:06:59.973Z,7.75
2023-02-27T12:09:51.421Z,9.52
2023-02-27T12:12:21.484Z,10.48
2023-02-27T12:14:58.444Z,6.88
2023-02-27T12:17:37.800Z,6.82
2023-02-27T12:20:11.517Z,7.20
2023-02-27T12:22:41.514Z,8.20
2023-02-27T12:25:14.959Z,6.78
2023-02-27T12:27:56.274Z,6.90
2023-02-27T12:30:26.917Z,9.23
2023-02-27T12:33:10.464Z,7.03
2023-02-27T12:35:37.704Z,8.35
2023-02-27T12:38:07.203Z,8.60
2023-02-27T12:40:39.100Z,6.85
2023-02-27T12:43:06.157Z,6.47
2023-02-27T12:45:52.296Z,7.60
2023-02-27T12:48:19.773Z,8.93
2023-02-27T12:50:49.987Z,7.25
2023-02-27T12:53:32.434Z,9.10
2023-02-27T12:56:04.906Z,7.85
2023-02-27T12:58:38.017Z,8.60
2023-02-27T13:01:14.237Z,16.77
2023-02-27T13:04:20.017Z,10.13
2023-02-27T13:06:50.576Z,7.53
2023-02-27T13:09:21.207Z,7.38
2023-02-27T13:12:11.455Z,7.30
2023-02-27T13:14:48.035Z,7.22
2023-02-27T13:17:21.574Z,7.20
2023-02-27T13:20:07.514Z,7.85
2023-02-27T13:22:45.557Z,8.20
2023-02-27T13:25:14.423Z,7.85
2023-02-27T13:27:47.691Z,8.50
2023-02-27T13:30:17.708Z,7.55
2023-02-27T13:32:53.535Z,7.47
2023-02-27T13:35:29.969Z,7.65
2023-02-27T13:37:57.319Z,8.40
2023-02-27T13:40:38.318Z,7.72
2023-02-27T13:43:24.339Z,9.35
2023-02-27T13:45:52.844Z,9.02
2023-02-27T13:48:35.230Z,7.88
2023-02-27T13:51:02.556Z,8.13
2023-02-27T13:53:30.231Z,12.70
2023-02-27T13:56:19.536Z,8.75
2023-02-27T13:58:46.758Z,7.40
2023-02-27T14:01:18.565Z,7.85
2023-02-27T14:03:53.361Z,9.40
2023-02-27T14:06:20.668Z,6.95
2023-02-27T14:08:49.736Z,8.77
2023-02-27T14:11:19.735Z,10.98
2023-02-27T14:13:54.741Z,6.10
2023-02-27T14:16:40.322Z,7.68
2023-02-27T14:19:16.274Z,6.72
2023-02-27T14:21:57.340Z,7.13
2023-02-27T14:25:01.135Z,7.07
2023-02-27T14:27:44.571Z,7.57
2023-02-27T14:30:30.395Z,6.97
2023-02-27T14:33:03.751Z,8.02
2023-02-27T14:35:31.203Z,7.53
2023-02-27T14:38:09.436Z,7.53
2023-02-27T14:40:39.741Z,6.68
2023-02-27T14:43:21.126Z,6.70
2023-02-27T14:45:49.168Z,8.93
2023-02-27T14:48:25.136Z,7.15
2023-02-27T14:50:53.993Z,8.43
2023-02-27T14:53:27.995Z,6.47
2023-02-27T14:55:59.484Z,7.43
2023-02-27T14:58:27.229Z,6.88
2023-02-27T15:01:08.365Z,7.22
2023-02-27T15:03:52.786Z,6.88
2023-02-27T15:06:21.576Z,7.82
2023-02-27T15:08:50.466Z,7.43
2023-02-27T15:11:18.989Z,5.75
2023-02-27T15:13:47.185Z,7.43
2023-02-27T15:16:34.619Z,6.45
2023-02-27T15:19:04.397Z,7.55
2023-02-27T15:21:34.031Z,5.30
2023-02-27T15:24:02.547Z,7.32
2023-02-27T15:26:30.701Z,5.88
2023-02-27T15:28:59.846Z,6.07
2023-02-27T15:31:30.053Z,6.63
2023-02-27T15:33:57.731Z,5.90
2023-02-27T15:36:27.221Z,6.63
2023-02-27T15:39:06.421Z,5.72
2023-02-27T15:41:33.734Z,6.43
2023-02-27T15:44:01.931Z,5.72
2023-02-27T15:46:29.308Z,7.55
2023-02-27T15:48:56.742Z,10.00
2023-02-27T15:51:26.134Z,5.45
2023-02-27T15:53:56.068Z,6.20
2023-02-27T15:56:27.194Z,5.10
2023-02-27T15:59:00.221Z,6.47
2023-02-27T16:01:29.735Z,5.88
2023-02-27T16:03:59.131Z,6.50
2023-02-27T16:06:28.327Z,5.85
2023-02-27T16:09:00.395Z,6.80
2023-02-27T16:11:32.216Z,6.55
2023-02-27T16:14:00.039Z,5.88
2023-02-27T16:16:35.032Z,6.85
2023-02-27T16:19:20.831Z,5.80
2023-02-27T16:22:07.713Z,6.53
2023-02-27T16:24:35.022Z,6.95
2023-02-27T16:27:02.237Z,7.45
2023-02-27T16:29:35.040Z,7.35
2023-02-27T16:32:02.597Z,6.00
2023-02-27T16:34:46.540Z,6.30
2023-02-27T16:37:18.410Z,7.40
2023-02-27T16:39:45.482Z,6.75
2023-02-27T16:42:12.614Z,7.13
2023-02-27T16:44:39.737Z,7.78
2023-02-27T16:47:06.831Z,6.40
2023-02-27T16:49:33.981Z,7.93
2023-02-27T16:52:05.879Z,6.78
2023-02-27T16:54:32.961Z,7.05
2023-02-27T16:57:00.133Z,8.20
2023-02-27T16:59:34.537Z,7.65
2023-02-27T17:02:03.483Z,9.88
2023-02-27T17:04:30.901Z,9.02
2023-02-27T17:06:59.178Z,8.38
2023-02-27T17:09:29.412Z,9.00
2023-02-27T17:11:57.401Z,9.80
2023-02-27T17:14:25.220Z,10.45
2023-02-27T17:16:52.542Z,7.35
2023-02-27T17:19:21.506Z,9.85
2023-02-27T17:21:48.864Z,8.23
2023-02-27T17:24:16.052Z,8.77
2023-02-27T17:26:43.150Z,11.77
2023-02-27T17:29:10.418Z,9.07
2023-02-27T17:31:37.812Z,9.23
2023-02-27T17:34:05.701Z,10.90
2023-02-27T17:36:32.828Z,11.93
2023-02-27T17:39:01.812Z,9.63
2023-02-27T17:41:29.908Z,10.15
2023-02-27T17:43:57.575Z,12.30
2023-02-27T17:46:27.083Z,9.23
2023-02-27T17:48:56.215Z,9.18
2023-02-27T17:51:23.684Z,8.82
2023-02-27T17:53:50.829Z,11.05
2023-02-27T17:56:17.988Z,11.98
2023-02-27T17:58:45.582Z,10.20
2023-02-27T18:01:19.494Z,10.23
2023-02-27T18:03:46.805Z,9.05
2023-02-27T18:06:14.672Z,10.63
2023-02-27T18:08:41.973Z,10.02
2023-02-27T18:11:10.870Z,13.20
2023-02-27T18:13:38.155Z,8.68
2023-02-27T18:16:05.854Z,12.57
2023-02-27T18:18:34.976Z,11.13
2023-02-27T18:21:03.750Z,12.35
2023-02-27T18:23:31.775Z,10.32
2023-02-27T18:25:59.702Z,10.48
2023-02-27T18:28:27.422Z,11.68
2023-02-27T18:30:54.689Z,11.15
2023-02-27T18:33:23.037Z,10.02
2023-02-27T18:35:50.516Z,10.82
2023-02-27T18:38:18.217Z,12.50
2023-02-27T18:40:45.431Z,12.05
2023-02-27T18:43:13.964Z,10.75
2023-02-27T18:45:41.567Z,12.18
2023-02-27T18:48:08.871Z,11.65
2023-02-27T18:50:36.019Z,10.32
2023-02-27T18:53:03.249Z,13.23
2023-02-27T18:55:30.393Z,9.95
2023-02-27T18:57:57.586Z,11.10
2023-02-27T19:00:24.948Z,12.15
2023-02-27T19:02:52.165Z,10.98
2023-02-27T19:05:19.691Z,12.77
2023-02-27T19:07:46.877Z,9.15
2023-02-27T19:10:15.049Z,11.93
2023-02-27T19:12:42.952Z,11.57
2023-02-27T19:15:10.867Z,11.07
2023-02-27T19:17:38.227Z,11.07
2023-02-27T19:20:06.897Z,13.77
2023-02-27T19:22:34.285Z,10.70
2023-02-27T19:25:01.676Z,13.48
2023-02-27T19:27:28.848Z,11.65
2023-02-27T19:29:56.050Z,11.10
2023-02-27T19:32:23.448Z,10.80
2023-02-27T19:34:50.603Z,9.98
2023-02-27T19:37:17.821Z,10.95
2023-02-27T19:39:44.979Z,11.63
2023-02-27T19:42:12.087Z,13.07
2023-02-27T19:44:40.526Z,12.95
2023-02-27T19:47:07.723Z,12.85
2023-02-27T19:49:38.181Z,11.02
2023-02-27T19:52:05.427Z,9.50
2023-02-27T19:54:33.125Z,14.77
2023-02-27T19:57:00.464Z,10.23
2023-02-27T19:59:27.665Z,9.90
2023-02-27T20:01:54.767Z,10.55
2023-02-27T20:04:22.269Z,9.32
2023-02-27T20:06:52.982Z,7.95
2023-02-27T20:09:23.426Z,9.00
2023-02-27T20:11:53.584Z,9.95
2023-02-27T20:14:20.669Z,11.55
2023-02-27T20:16:47.844Z,10.48
2023-02-27T20:19:16.842Z,10.82
2023-02-27T20:21:44.209Z,9.35
2023-02-27T20:24:11.483Z,11.02
2023-02-27T20:26:40.216Z,10.65
2023-02-27T20:29:08.874Z,10.00
2023-02-27T20:31:37.345Z,11.27
2023-02-27T20:34:06.142Z,9.80
2023-02-27T20:36:34.634Z,9.65
2023-02-27T20:39:02.388Z,11.80
2023-02-27T20:41:30.017Z,11.38
2023-02-27T20:43:57.331Z,10.45
2023-02-27T20:46:26.552Z,10.32
2023-02-27T20:48:53.720Z,9.52
2023-02-27T20:51:22.157Z,11.60
2023-02-27T20:53:50.274Z,12.10
2023-02-27T20:56:20.343Z,9.20
2023-02-27T20:58:47.553Z,10.10
2023-02-27T21:01:15.672Z,11.00
2023-02-27T21:03:43.672Z,10.98
2023-02-27T21:06:12.425Z,11.20
2023-02-27T21:08:40.830Z,10.07
2023-02-27T21:11:09.009Z,10.25
2023-02-27T21:13:36.317Z,12.68
2023-02-27T21:16:07.462Z,10.55
2023-02-27T21:18:34.716Z,12.45
2023-02-27T21:21:05.954Z,13.40
2023-02-27T21:23:34.438Z,12.25
2023-02-27T21:26:01.542Z,11.48
2023-02-27T21:28:28.622Z,10.57
2023-02-27T21:30:55.794Z,14.43
2023-02-27T21:33:23.139Z,10.98
2023-02-27T21:35:50.385Z,10.20
2023-02-27T21:38:17.854Z,12.77
2023-02-27T21:40:45.007Z,14.35
2023-02-27T21:43:12.104Z,12.25
2023-02-27T21:45:43.985Z,12.57
2023-02-27T21:48:11.812Z,10.63
2023-02-27T21:50:38.999Z,11.73
2023-02-27T21:53:06.430Z,9.25
2023-02-27T21:55:34.684Z,11.57
2023-02-27T21:58:04.118Z,9.98
2023-02-27T22:00:31.534Z,7.35
2023-02-27T22:02:58.626Z,8.00
2023-02-27T22:05:25.722Z,10.15
2023-02-27T22:07:52.908Z,7.35
2023-02-27T22:10:20.007Z,9.15
2023-02-27T22:12:47.088Z,9.88
2023-02-27T22:15:14.245Z,8.35
2023-02-27T22:17:41.328Z,9.02
2023-02-27T22:20:09.627Z,9.40
2023-02-27T22:22:36.817Z,8.88
2023-02-27T22:25:04.017Z,8.25
2023-02-27T22:27:31.169Z,8.40
2023-02-27T22:29:58.522Z,7.88
2023-02-27T22:32:25.716Z,8.45
2023-02-27T22:34:52.819Z,7.05
2023-02-27T22:37:19.979Z,8.35
2023-02-27T22:39:47.071Z,8.30
2023-02-27T22:42:14.217Z,9.77
2023-02-27T22:44:41.415Z,11.63
2023-02-27T22:47:09.343Z,10.32
2023-02-27T22:49:37.334Z,8.38
2023-02-27T22:52:04.573Z,10.82
2023-02-27T22:54:31.677Z,9.05
2023-02-27T22:56:58.789Z,8.30
2023-02-27T22:59:26.395Z,7.88
2023-02-27T23:01:54.002Z,8.60
2023-02-27T23:04:22.201Z,8.38
2023-02-27T23:06:51.576Z,7.97
2023-02-27T23:09:21.598Z,8.50
2023-02-27T23:11:48.676Z,11.18
2023-02-27T23:14:16.343Z,8.18
2023-02-27T23:16:46.820Z,9.27
2023-02-27T23:19:14.998Z,8.68
2023-02-27T23:21:42.386Z,8.23
2023-02-27T23:24:11.424Z,10.10
2023-02-27T23:26:39.376Z,9.13
2023-02-27T23:29:07.087Z,10.75
2023-02-27T23:31:35.678Z,9.48
2023-02-27T23:34:05.617Z,9.77
2023-02-27T23:36:33.568Z,8.43
2023-02-27T23:39:02.811Z,7.70
2023-02-27T23:41:30.447Z,9.82
2023-02-27T23:44:16.486Z,10.00
2023-02-27T23:46:43.612Z,9.73
2023-02-27T23:49:11.095Z,10.45
2023-02-27T23:51:38.274Z,10.27
2023-02-27T23:54:05.386Z,9.13
2023-02-27T23:56:32.580Z,7.93
2023-02-27T23:59:04.508Z,9.43
